Airfield :
LOGIN :

Register | Disclaimer

   EN    FR    IT 

 










Legend :    VFR   Marginal VFR   IFR   Intensive IFR   Very Intensive IFR
Visi :
Ceiling :
>= 8 km
>= 3000ft
5 to 8 km
1000 to 3000 ft
1500m to 5 km
500 to 1000 ft
800 to 1500m
200 to 500 ft
< 800m
< 200 ft
Symbols :   Thunderstorms  Fog  Heavy snow  Heavy precipitations  Wind > 20 kt
SIGMETs :     Misc.  Thunderstorms  Icing  Turbulence  Mountain Waves  Volcanic Ashes






- Airport Elevation : 19 ft
- IATA code : LCY


EGLC - London City

CURRENT METAR :
  • 240350Z AUTO VRB02KT 2300 BR BKN005 OVC016 13/12 Q1004

EXPIRED METARs :
  • 240320Z AUTO 34001KT 2500 BR FEW010 OVC015 13/12 Q1004
  • 240250Z AUTO VRB01KT 3100 HZ BKN007 OVC015 13/12 Q1004
  • 240220Z AUTO VRB02KT 2700 BR OVC014 13/12 Q1004
  • 240150Z AUTO 00000KT 3300 BR BKN011 OVC018 13/12 Q1005
  • 240120Z AUTO VRB01KT 3300 HZ BKN011 OVC018 13/12 Q1005

TAF TAF EGLC
Valid from the 24 at 03:00 until the 24 at 12:00 UTC


240200Z 2403/2412 VRB03KT 3000 HZ BKN010
TEMPO 2403/2411 BKN006
PROB40
TEMPO 2403/2409 1400 BR BKN003
TEMPO 2411/2412 5000 +RA BKN015
ATIS : +44 20 7646 0224



MET'MAP, your aeronautical weather chart ! - Copyright ORBIFLY December 2007 - Disclaimer

ORBIFLY MET'MAP TEAM :

Programming & Development : Alexandra Zaïnal
Concept & Development : Baudouin d'Aumeries
Co-Development & Prog : Marc-Olivier Méhu
Technical & hardware support : Manuel Goepfert

Contact : metmap@orbifly.com




SOURCES & CREDITS :

   NOAA